Terminal Aerodrome Forecast
Issued by NWS Cleveland, OH

Home | Current Version | Previous Version | Graphics & Text | Print | Product List | Glossary On
Versions: 1 2 3 4 5 6 7 8 9 10 11 12 13 14 15 16 17 18 19 20 21 22 23 24
312
FTUS41 KCLE 201619 AAA
TAFMFD
TAF AMD
KMFD 201619Z 2016/2112 17010KT P6SM SCT025 OVC050
      TEMPO 2016/2018 BKN025
     FM201800 18010KT P6SM OVC025
     FM202200 18008KT 5SM -SHRA OVC015
     FM210300 VRB03KT 5SM BR OVC006=

USA.gov is the U.S. government's official web portal to all federal, state and local government web resources and services.